Time;durP1;ratioP1;P1;durP2;ratioP2;P2;SDS_P1;SDS_P2;PMS_P1;PMS_P2;Temp;Humidity;BMP_temperature;BMP_pressure;BME280_temperature;BME280_humidity;BME280_pressure;Samples;Min_cycle;Max_cycle;Signal;HPM_P1;HPM_P2
2021/03/03 00:01:26;;;;;;;7.63;5.95;;;10.10;99.90;;;;;;5109169;28;20201;-75
2021/03/03 00:03:52;;;;;;;9.43;6.85;;;10.10;99.90;;;;;;5112213;28;20193;-75
2021/03/03 00:06:19;;;;;;;8.80;6.18;;;10.10;99.90;;;;;;5104236;28;20197;-75
2021/03/03 00:08:45;;;;;;;7.70;6.13;;;10.10;99.90;;;;;;5103353;28;20190;-75
2021/03/03 00:11:12;;;;;;;10.18;7.75;;;10.00;99.90;;;;;;5106956;28;20200;-75
2021/03/03 00:13:38;;;;;;;11.80;7.07;;;10.00;99.90;;;;;;5112217;28;20200;-75
2021/03/03 00:16:05;;;;;;;8.25;6.72;;;10.00;99.90;;;;;;5095896;27;20645;-75
2021/03/03 00:18:31;;;;;;;6.88;5.78;;;10.00;99.90;;;;;;5094007;28;20221;-75
2021/03/03 00:20:58;;;;;;;8.25;7.10;;;10.00;99.90;;;;;;5103419;27;20243;-75
2021/03/03 00:23:25;;;;;;;7.88;6.57;;;10.00;99.90;;;;;;5100845;28;20225;-75
2021/03/03 00:25:51;;;;;;;8.95;6.60;;;9.90;99.90;;;;;;5103510;27;20200;-75
2021/03/03 00:28:17;;;;;;;6.95;6.25;;;9.90;99.90;;;;;;5103136;28;20194;-75
2021/03/03 00:30:43;;;;;;;10.15;7.32;;;9.90;99.90;;;;;;5107803;28;20192;-74
2021/03/03 00:33:09;;;;;;;15.48;7.97;;;9.90;99.90;;;;;;5114472;27;20200;-75
2021/03/03 00:35:36;;;;;;;10.02;6.80;;;9.90;99.90;;;;;;5110548;27;20205;-75
2021/03/03 00:38:02;;;;;;;9.02;6.53;;;9.90;99.90;;;;;;5093712;28;20217;-75
2021/03/03 00:40:29;;;;;;;8.70;6.00;;;9.90;99.90;;;;;;5099574;27;20601;-75
2021/03/03 00:42:55;;;;;;;9.10;7.38;;;9.90;99.90;;;;;;5093777;27;20629;-76
2021/03/03 00:45:21;;;;;;;11.65;7.93;;;9.80;99.90;;;;;;5092191;27;20533;-75
2021/03/03 00:47:47;;;;;;;9.90;7.50;;;9.80;99.90;;;;;;5092786;28;20193;-75
2021/03/03 00:50:14;;;;;;;8.48;6.85;;;9.80;99.90;;;;;;5091671;27;20696;-75
2021/03/03 00:52:40;;;;;;;9.30;7.03;;;9.80;99.90;;;;;;5096639;28;20197;-75
2021/03/03 00:55:07;;;;;;;10.27;7.35;;;9.80;99.90;;;;;;5100187;28;20201;-75
2021/03/03 00:57:34;;;;;;;8.00;6.30;;;9.80;99.90;;;;;;5102069;28;20217;-76
2021/03/03 01:00:01;;;;;;;9.65;6.30;;;9.80;99.90;;;;;;5102540;27;20894;-76
2021/03/03 01:02:27;;;;;;;8.55;6.95;;;9.80;99.90;;;;;;5102507;28;20208;-76
2021/03/03 01:04:53;;;;;;;8.95;6.90;;;9.70;99.90;;;;;;5091592;28;20197;-76
2021/03/03 01:07:19;;;;;;;9.50;7.15;;;9.70;99.90;;;;;;5092532;28;20292;-74
2021/03/03 01:09:45;;;;;;;10.15;7.22;;;9.70;99.90;;;;;;5107380;28;20201;-74
2021/03/03 01:12:11;;;;;;;8.05;6.97;;;9.70;99.90;;;;;;5108440;27;20204;-74
2021/03/03 01:14:38;;;;;;;9.20;6.70;;;9.70;99.90;;;;;;5091203;28;20596;-74
2021/03/03 01:17:05;;;;;;;8.05;6.70;;;9.70;99.90;;;;;;5091445;28;20217;-74
2021/03/03 01:19:31;;;;;;;8.65;6.60;;;9.70;99.90;;;;;;5094285;28;20200;-74
2021/03/03 01:21:57;;;;;;;11.63;7.60;;;9.60;99.90;;;;;;5098271;28;20233;-74
2021/03/03 01:24:23;;;;;;;9.00;6.22;;;9.60;99.90;;;;;;5106720;28;20591;-74
2021/03/03 01:26:49;;;;;;;8.45;6.70;;;9.60;99.90;;;;;;5105073;28;20284;-74
2021/03/03 01:29:15;;;;;;;10.05;7.25;;;9.60;99.90;;;;;;5091990;28;20197;-74
2021/03/03 01:31:42;;;;;;;8.52;6.97;;;9.60;99.90;;;;;;5095767;27;20552;-74
2021/03/03 01:34:09;;;;;;;7.97;6.35;;;9.60;99.90;;;;;;5101387;27;20200;-75
2021/03/03 01:36:35;;;;;;;8.75;6.88;;;9.60;99.90;;;;;;5111558;28;20201;-75
2021/03/03 01:39:01;;;;;;;9.55;7.18;;;9.60;99.90;;;;;;5101023;28;20210;-74
2021/03/03 01:41:27;;;;;;;8.32;6.40;;;9.60;99.90;;;;;;5095078;28;20197;-75
2021/03/03 01:43:53;;;;;;;8.10;7.05;;;9.60;99.90;;;;;;5098215;28;20205;-75
2021/03/03 01:46:20;;;;;;;9.32;7.63;;;9.60;99.90;;;;;;5092107;28;20630;-74
2021/03/03 01:48:47;;;;;;;11.38;8.00;;;9.50;99.90;;;;;;5110072;28;20189;-74
2021/03/03 01:51:15;;;;;;;9.20;6.75;;;9.50;99.90;;;;;;5096405;28;20548;-74
2021/03/03 01:53:42;;;;;;;8.63;6.38;;;9.50;99.90;;;;;;5090991;28;20197;-74
2021/03/03 01:56:08;;;;;;;9.02;6.80;;;9.50;99.90;;;;;;5104353;27;20200;-74
2021/03/03 01:58:35;;;;;;;10.35;7.20;;;9.50;99.90;;;;;;5090464;28;20631;-74
2021/03/03 02:01:01;;;;;;;8.55;6.85;;;9.50;99.90;;;;;;5100606;28;20196;-74
2021/03/03 02:03:27;;;;;;;11.80;7.82;;;9.50;99.90;;;;;;5100268;28;20578;-74
2021/03/03 02:05:58;;;;;;;10.43;7.00;;;9.50;99.90;;;;;;5111225;28;20208;-74
2021/03/03 02:08:31;;;;;;;11.05;7.30;;;9.50;99.90;;;;;;5097620;28;20230;-74
2021/03/03 02:11:02;;;;;;;9.00;6.90;;;9.40;99.90;;;;;;5098866;28;20234;-74
2021/03/03 02:13:33;;;;;;;9.20;6.35;;;9.40;99.90;;;;;;5107097;28;20185;-74
2021/03/03 02:16:02;;;;;;;8.48;6.53;;;9.40;99.90;;;;;;5107549;28;20188;-74
2021/03/03 02:18:29;;;;;;;11.15;8.07;;;9.40;99.90;;;;;;5110821;28;20265;-74
2021/03/03 02:21:02;;;;;;;10.50;6.97;;;9.40;99.90;;;;;;5107463;28;20197;-74
2021/03/03 02:23:41;;;;;;;10.18;6.68;;;9.40;99.90;;;;;;5091239;28;20282;-74
2021/03/03 02:26:08;;;;;;;10.57;7.18;;;9.40;99.90;;;;;;5104129;28;20193;-74
2021/03/03 02:28:35;;;;;;;7.80;6.05;;;9.40;99.90;;;;;;5098024;28;20196;-74
2021/03/03 02:31:03;;;;;;;8.43;7.30;;;9.40;99.90;;;;;;5096344;28;20197;-74
2021/03/03 02:33:30;;;;;;;18.50;7.05;;;9.30;99.90;;;;;;5102974;28;20637;-74
2021/03/03 02:35:57;;;;;;;8.40;7.57;;;9.40;99.90;;;;;;5113705;28;20201;-74
2021/03/03 02:38:25;;;;;;;10.15;7.43;;;9.30;99.90;;;;;;5105793;28;20224;-74
2021/03/03 02:40:51;;;;;;;8.40;6.07;;;9.30;99.90;;;;;;5097570;27;20198;-74
2021/03/03 02:43:19;;;;;;;10.20;7.30;;;9.30;99.90;;;;;;5109935;28;20212;-74
2021/03/03 02:45:47;;;;;;;7.05;6.35;;;9.30;99.90;;;;;;5104499;28;20193;-74
2021/03/03 02:48:14;;;;;;;9.63;6.95;;;9.20;99.90;;;;;;5111860;28;20193;-75
2021/03/03 02:50:40;;;;;;;10.25;6.85;;;9.20;99.90;;;;;;5111383;28;20579;-75
2021/03/03 02:53:07;;;;;;;8.43;6.50;;;9.20;99.90;;;;;;5099739;28;20189;-76
2021/03/03 02:55:33;;;;;;;8.50;6.70;;;9.20;99.90;;;;;;5102767;27;20205;-75
2021/03/03 02:58:02;;;;;;;8.73;6.72;;;9.20;99.90;;;;;;5106008;28;20214;-75
2021/03/03 03:00:31;;;;;;;10.50;7.53;;;9.20;99.90;;;;;;5105499;28;20196;-76
2021/03/03 03:03:03;;;;;;;8.15;6.43;;;9.20;99.90;;;;;;5099118;28;20200;-76
2021/03/03 03:05:32;;;;;;;10.82;6.85;;;9.20;99.90;;;;;;5113737;28;20200;-73
2021/03/03 03:08:02;;;;;;;7.70;6.50;;;9.20;99.90;;;;;;5114267;28;20205;-75
2021/03/03 03:10:29;;;;;;;10.98;8.05;;;9.20;99.90;;;;;;5109886;28;20205;-75
2021/03/03 03:12:57;;;;;;;12.45;7.78;;;9.10;99.90;;;;;;5106699;28;20234;-75
2021/03/03 03:15:26;;;;;;;13.48;6.07;;;9.10;99.90;;;;;;5101029;28;20653;-75
2021/03/03 03:17:59;;;;;;;8.07;6.25;;;9.10;99.90;;;;;;5097705;28;20217;-75
2021/03/03 03:20:27;;;;;;;8.70;6.47;;;9.10;99.90;;;;;;5102885;28;20193;-75
2021/03/03 03:22:54;;;;;;;8.73;6.32;;;9.10;99.90;;;;;;5104562;28;20743;-75
2021/03/03 03:25:21;;;;;;;12.10;7.07;;;9.10;99.90;;;;;;5105049;27;20271;-75
2021/03/03 03:27:48;;;;;;;10.00;6.80;;;9.10;99.90;;;;;;5112330;28;20189;-75
2021/03/03 03:30:15;;;;;;;8.70;7.43;;;9.10;99.90;;;;;;5109968;27;20204;-76
2021/03/03 03:32:42;;;;;;;10.18;7.25;;;9.00;99.90;;;;;;5094770;28;20197;-75
2021/03/03 03:35:11;;;;;;;16.60;7.85;;;9.00;99.90;;;;;;5113861;28;20234;-75
2021/03/03 03:37:39;;;;;;;10.43;6.70;;;9.00;99.90;;;;;;5093943;27;20224;-76
2021/03/03 03:40:07;;;;;;;7.15;6.07;;;9.00;99.90;;;;;;5102667;28;20197;-75
2021/03/03 03:42:34;;;;;;;7.50;5.47;;;9.00;99.90;;;;;;5104232;28;20562;-75
2021/03/03 03:45:01;;;;;;;8.32;6.20;;;9.00;99.90;;;;;;5112487;28;20664;-75
2021/03/03 03:47:28;;;;;;;7.90;6.05;;;9.00;99.90;;;;;;5111317;28;20249;-75
2021/03/03 03:49:54;;;;;;;9.77;6.38;;;9.00;99.90;;;;;;5105951;27;20209;-75
2021/03/03 03:52:22;;;;;;;9.63;7.00;;;9.00;99.90;;;;;;5094902;28;20250;-75
2021/03/03 03:54:49;;;;;;;9.32;7.07;;;8.90;99.90;;;;;;5095931;27;20198;-75
2021/03/03 03:57:16;;;;;;;9.30;7.47;;;8.90;99.90;;;;;;5107175;28;20209;-75
2021/03/03 03:59:42;;;;;;;9.60;7.18;;;8.90;99.90;;;;;;5108766;27;20737;-75
2021/03/03 04:02:08;;;;;;;10.50;6.55;;;8.90;99.90;;;;;;5113406;28;20219;-75
2021/03/03 04:04:34;;;;;;;9.43;8.30;;;8.90;99.90;;;;;;5110769;27;20265;-75
2021/03/03 04:07:00;;;;;;;11.07;6.50;;;8.90;99.90;;;;;;5105981;28;20197;-75
2021/03/03 04:09:28;;;;;;;8.38;6.50;;;8.90;99.90;;;;;;5110505;28;20185;-73
2021/03/03 04:11:54;;;;;;;9.60;7.88;;;8.80;99.90;;;;;;5095502;27;20200;-73
2021/03/03 04:14:20;;;;;;;9.27;7.50;;;8.80;99.90;;;;;;5095463;28;20526;-73
2021/03/03 04:16:46;;;;;;;9.55;7.90;;;8.80;99.90;;;;;;5109931;28;20598;-72
2021/03/03 04:19:12;;;;;;;9.30;6.43;;;8.70;99.90;;;;;;5102148;28;20209;-73
2021/03/03 04:21:38;;;;;;;11.07;7.18;;;8.70;99.90;;;;;;5106797;28;20200;-73
2021/03/03 04:24:06;;;;;;;11.98;7.18;;;8.70;99.90;;;;;;5095563;28;20198;-73
2021/03/03 04:26:33;;;;;;;11.30;7.10;;;8.70;99.90;;;;;;5108008;27;20208;-73
2021/03/03 04:28:59;;;;;;;10.95;7.72;;;8.70;99.90;;;;;;5094470;27;20298;-73
2021/03/03 04:31:26;;;;;;;8.77;7.15;;;8.70;99.90;;;;;;5097924;28;20193;-73
2021/03/03 04:33:52;;;;;;;10.35;7.15;;;8.70;99.90;;;;;;5092998;28;20197;-73
2021/03/03 04:36:18;;;;;;;8.73;6.70;;;8.60;99.90;;;;;;5106159;28;20196;-73
2021/03/03 04:38:44;;;;;;;10.95;6.47;;;8.70;99.90;;;;;;5111132;27;20224;-73
2021/03/03 04:41:10;;;;;;;10.57;6.95;;;8.60;99.90;;;;;;5098514;28;20565;-73
2021/03/03 04:43:37;;;;;;;7.45;6.68;;;8.60;99.90;;;;;;5098902;28;20655;-73
2021/03/03 04:46:04;;;;;;;9.05;7.00;;;8.60;99.90;;;;;;5105473;28;20207;-73
2021/03/03 04:48:30;;;;;;;12.55;7.38;;;8.50;99.90;;;;;;5094216;28;20204;-73
2021/03/03 04:50:56;;;;;;;9.05;6.43;;;8.60;99.90;;;;;;5109697;28;20200;-73
2021/03/03 04:53:23;;;;;;;8.85;7.80;;;8.50;99.90;;;;;;5109947;28;20193;-73
2021/03/03 04:55:49;;;;;;;11.93;6.80;;;8.50;99.90;;;;;;5110561;28;20197;-73
2021/03/03 04:58:15;;;;;;;7.75;5.47;;;8.50;99.90;;;;;;5091454;28;20225;-73
2021/03/03 05:00:42;;;;;;;9.98;6.90;;;8.50;99.90;;;;;;5098774;28;20208;-73
2021/03/03 05:03:09;;;;;;;10.85;6.55;;;8.50;99.90;;;;;;5103856;28;20245;-73
2021/03/03 05:05:35;;;;;;;8.52;5.97;;;8.60;99.90;;;;;;5091893;28;20201;-73
2021/03/03 05:08:01;;;;;;;7.57;6.47;;;8.50;99.90;;;;;;5105734;28;20197;-73
2021/03/03 05:10:27;;;;;;;10.15;6.78;;;8.40;99.90;;;;;;5103105;28;20506;-73
2021/03/03 05:12:53;;;;;;;8.10;6.00;;;8.40;99.90;;;;;;5094169;28;20665;-73
2021/03/03 05:15:19;;;;;;;10.10;7.03;;;8.40;99.90;;;;;;5096202;27;20576;-73
2021/03/03 05:17:46;;;;;;;8.05;6.75;;;8.50;99.90;;;;;;5104993;28;20289;-73
2021/03/03 05:20:13;;;;;;;8.45;6.85;;;8.50;99.90;;;;;;5095487;28;20194;-73
2021/03/03 05:22:40;;;;;;;10.90;8.50;;;8.40;99.90;;;;;;5097758;28;20252;-74
2021/03/03 05:25:07;;;;;;;10.18;6.32;;;8.40;99.90;;;;;;5105994;27;20785;-73
2021/03/03 05:27:33;;;;;;;7.55;6.13;;;8.40;99.90;;;;;;5098247;28;20197;-74
2021/03/03 05:29:59;;;;;;;12.10;7.07;;;8.40;99.90;;;;;;5097457;28;20197;-73
2021/03/03 05:32:25;;;;;;;7.57;5.53;;;8.40;99.90;;;;;;5100751;28;20722;-73
2021/03/03 05:34:52;;;;;;;7.78;6.72;;;8.30;99.90;;;;;;5100834;28;20257;-73
2021/03/03 05:37:19;;;;;;;6.68;5.82;;;8.30;99.90;;;;;;5102984;27;20270;-73
2021/03/03 05:39:45;;;;;;;8.43;6.53;;;8.30;99.90;;;;;;5108378;28;20200;-72
2021/03/03 05:42:12;;;;;;;9.18;6.85;;;8.30;99.90;;;;;;5097272;28;20213;-72
2021/03/03 05:44:43;;;;;;;9.68;7.20;;;8.30;99.90;;;;;;5109118;28;20193;-72
2021/03/03 05:47:09;;;;;;;9.60;7.03;;;8.30;99.90;;;;;;5100419;28;20199;-74
2021/03/03 05:49:41;;;;;;;10.13;6.38;;;8.30;99.90;;;;;;5108554;27;20197;-73
2021/03/03 05:52:08;;;;;;;8.95;5.95;;;8.30;99.90;;;;;;5110236;28;20661;-73
2021/03/03 05:54:35;;;;;;;9.18;6.60;;;8.30;99.90;;;;;;5104750;28;20208;-73
2021/03/03 05:57:02;;;;;;;11.45;7.03;;;8.20;99.90;;;;;;5108298;28;20197;-73
2021/03/03 05:59:30;;;;;;;10.18;7.00;;;8.20;99.90;;;;;;5111140;28;20675;-72
2021/03/03 06:01:56;;;;;;;9.60;6.53;;;8.20;99.90;;;;;;5108571;28;20193;-72
2021/03/03 06:04:22;;;;;;;9.48;6.28;;;8.20;99.90;;;;;;5107123;28;20197;-72
2021/03/03 06:06:49;;;;;;;8.00;6.13;;;8.20;99.90;;;;;;5097579;28;20204;-72
2021/03/03 06:09:16;;;;;;;11.68;7.55;;;8.20;99.90;;;;;;5103624;28;20204;-72
2021/03/03 06:11:42;;;;;;;10.43;6.47;;;8.10;99.90;;;;;;5110487;28;20207;-72
2021/03/03 06:14:08;;;;;;;8.05;6.15;;;8.10;99.90;;;;;;5106380;28;20560;-72
2021/03/03 06:16:35;;;;;;;10.10;7.32;;;8.10;99.90;;;;;;5100996;28;20602;-72
2021/03/03 06:19:01;;;;;;;8.45;6.18;;;8.20;99.90;;;;;;5111047;28;20212;-72
2021/03/03 06:21:29;;;;;;;9.40;6.60;;;8.10;99.90;;;;;;5105240;28;20193;-72
2021/03/03 06:24:00;;;;;;;9.45;6.00;;;8.20;99.90;;;;;;5096629;28;20209;-72
2021/03/03 06:26:27;;;;;;;11.82;6.60;;;8.20;99.90;;;;;;5095740;28;20872;-72
2021/03/03 06:28:54;;;;;;;8.25;6.63;;;8.10;99.90;;;;;;5095564;28;20202;-72
2021/03/03 06:31:26;;;;;;;12.23;7.25;;;8.10;99.90;;;;;;5094944;28;20207;-72
2021/03/03 06:33:53;;;;;;;11.32;7.32;;;8.10;99.90;;;;;;5109638;28;20197;-71
2021/03/03 06:36:22;;;;;;;7.20;5.85;;;8.20;99.90;;;;;;5100831;28;20659;-71
2021/03/03 06:38:48;;;;;;;10.65;7.28;;;8.20;99.90;;;;;;5090369;28;20218;-72
2021/03/03 06:41:14;;;;;;;8.45;5.80;;;8.20;99.90;;;;;;5094955;28;20769;-73
2021/03/03 06:43:55;;;;;;;10.68;7.07;;;8.10;99.90;;;;;;5108617;28;20192;-71
2021/03/03 06:46:21;;;;;;;11.75;7.22;;;8.20;99.90;;;;;;5098732;28;20502;-72
2021/03/03 06:48:47;;;;;;;9.88;6.90;;;8.20;99.90;;;;;;5110440;28;20189;-73
2021/03/03 06:51:28;;;;;;;8.20;7.18;;;8.20;99.90;;;;;;5106860;28;20201;-73
2021/03/03 06:53:55;;;;;;;11.40;6.40;;;8.20;99.90;;;;;;5106636;28;20246;-73
2021/03/03 06:56:32;;;;;;;8.93;6.03;;;8.20;99.90;;;;;;5100540;28;20633;-73
2021/03/03 06:59:20;;;;;;;10.73;7.10;;;8.30;99.90;;;;;;5090473;28;20222;-73
2021/03/03 07:01:47;;;;;;;10.45;6.43;;;8.30;99.90;;;;;;5095480;28;20201;-72
2021/03/03 07:04:24;;;;;;;7.50;6.22;;;8.30;99.90;;;;;;5105923;28;20201;-73
2021/03/03 07:06:52;;;;;;;9.95;7.10;;;8.30;99.90;;;;;;5097366;28;20203;-74
2021/03/03 07:09:19;;;;;;;7.75;6.35;;;8.30;99.90;;;;;;5096734;28;20243;-74
2021/03/03 07:11:45;;;;;;;9.77;7.28;;;8.30;99.90;;;;;;5098336;28;20287;-74
2021/03/03 07:14:18;;;;;;;8.50;6.35;;;8.30;99.90;;;;;;5103022;28;20215;-74
2021/03/03 07:17:12;;;;;;;7.32;5.90;;;8.30;99.90;;;;;;5101070;28;20202;-74
2021/03/03 07:19:40;;;;;;;11.52;6.70;;;8.30;99.90;;;;;;5090833;27;20702;-73
2021/03/03 07:22:21;;;;;;;9.55;6.45;;;8.40;99.90;;;;;;5106972;28;20583;-74
2021/03/03 07:24:48;;;;;;;10.48;6.72;;;8.30;99.90;;;;;;5113289;28;20189;-74
2021/03/03 07:27:18;;;;;;;9.48;6.55;;;8.30;99.90;;;;;;5101381;28;20257;-74
2021/03/03 07:29:48;;;;;;;9.88;6.68;;;8.30;99.90;;;;;;5095191;28;20678;-74
2021/03/03 07:32:14;;;;;;;8.35;6.30;;;8.30;99.90;;;;;;5108794;28;20207;-74
2021/03/03 07:34:41;;;;;;;10.13;6.93;;;8.30;99.90;;;;;;5107254;28;20202;-74
2021/03/03 07:37:09;;;;;;;10.27;6.15;;;8.40;99.90;;;;;;5094735;27;20201;-73
2021/03/03 07:39:40;;;;;;;7.07;6.38;;;8.30;99.90;;;;;;5108442;28;20239;-74
2021/03/03 07:42:15;;;;;;;12.40;7.05;;;8.30;99.90;;;;;;5104901;28;20203;-74
2021/03/03 07:44:43;;;;;;;10.50;7.78;;;8.30;99.90;;;;;;5112280;28;20291;-74
2021/03/03 07:47:11;;;;;;;9.15;6.63;;;8.30;99.90;;;;;;5102093;28;20256;-74
2021/03/03 07:49:38;;;;;;;10.30;6.50;;;8.30;99.90;;;;;;5108151;28;20193;-72
2021/03/03 07:52:06;;;;;;;13.68;7.78;;;8.30;99.90;;;;;;5109650;28;20761;-72
2021/03/03 07:54:33;;;;;;;13.32;9.00;;;8.30;99.90;;;;;;5112574;27;20258;-72
2021/03/03 07:57:02;;;;;;;11.40;7.75;;;8.30;99.90;;;;;;5101058;27;20193;-72
2021/03/03 07:59:28;;;;;;;13.45;8.43;;;8.20;99.90;;;;;;5099156;28;20220;-73
2021/03/03 08:01:55;;;;;;;11.45;7.60;;;8.30;99.90;;;;;;5111932;28;20223;-73
2021/03/03 08:04:38;;;;;;;11.55;6.88;;;8.30;99.90;;;;;;5111503;27;22373;-74
2021/03/03 08:07:15;;;;;;;11.50;7.75;;;8.40;99.90;;;;;;5094518;28;20201;-74
2021/03/03 08:10:20;;;;;;;10.85;7.80;;;8.50;99.90;;;;;;5104158;27;20200;-75
2021/03/03 08:12:57;;;;;;;9.70;7.70;;;8.60;99.90;;;;;;5096954;27;20211;-75
2021/03/03 08:15:39;;;;;;;8.80;6.60;;;8.70;99.90;;;;;;5107317;28;20630;-75
2021/03/03 08:18:26;;;;;;;10.25;8.23;;;8.80;99.90;;;;;;5091708;28;20217;-82
2021/03/03 08:20:54;;;;;;;10.98;7.88;;;8.80;99.90;;;;;;5096815;27;20322;-83
2021/03/03 08:23:40;;;;;;;11.05;7.88;;;8.80;99.90;;;;;;5092253;28;20229;-84
2021/03/03 08:26:11;;;;;;;9.38;7.07;;;8.90;99.90;;;;;;5093681;28;20193;-77
2021/03/03 08:28:39;;;;;;;10.02;7.15;;;8.90;99.90;;;;;;5110462;28;20506;-77
2021/03/03 08:31:30;;;;;;;9.65;7.60;;;9.00;99.90;;;;;;5094905;28;20205;-78
2021/03/03 08:34:02;;;;;;;12.82;8.68;;;9.00;99.90;;;;;;5090866;28;20197;-78
2021/03/03 08:37:01;;;;;;;11.52;8.88;;;9.00;99.90;;;;;;5094080;28;20233;-79
2021/03/03 08:39:32;;;;;;;9.25;7.22;;;8.90;99.90;;;;;;5091407;27;20210;-78
2021/03/03 08:42:03;;;;;;;10.90;6.50;;;8.70;99.90;;;;;;5095112;27;20235;-78
2021/03/03 08:44:29;;;;;;;9.55;6.85;;;8.80;99.90;;;;;;5100233;28;20575;-78
2021/03/03 08:46:55;;;;;;;10.40;6.88;;;8.90;99.90;;;;;;5100615;27;20193;-78
2021/03/03 08:49:29;;;;;;;11.00;7.20;;;9.10;99.90;;;;;;5097401;28;20545;-78
2021/03/03 08:52:12;;;;;;;11.38;7.80;;;9.20;99.90;;;;;;5095368;28;20197;-78
2021/03/03 08:54:43;;;;;;;10.13;7.50;;;9.40;99.90;;;;;;5104426;28;20188;-78
2021/03/03 08:57:30;;;;;;;8.35;6.60;;;9.50;99.90;;;;;;5099195;28;20246;-78
2021/03/03 08:59:56;;;;;;;10.07;7.50;;;9.60;99.90;;;;;;5090666;28;20674;-79
2021/03/03 09:02:26;;;;;;;11.38;6.75;;;9.70;99.90;;;;;;5096783;28;20197;-79
2021/03/03 09:04:54;;;;;;;8.77;6.82;;;9.80;99.90;;;;;;5104807;28;20215;-78
2021/03/03 09:07:22;;;;;;;7.45;6.25;;;9.90;99.90;;;;;;5102609;28;20289;-79
2021/03/03 09:09:50;;;;;;;7.85;6.22;;;9.90;99.90;;;;;;5102859;28;20193;-79
2021/03/03 09:12:18;;;;;;;10.43;7.43;;;10.00;99.90;;;;;;5091189;28;20205;-78
2021/03/03 09:14:46;;;;;;;12.98;7.63;;;10.10;99.90;;;;;;5092516;27;20700;-78
2021/03/03 09:17:14;;;;;;;9.07;7.03;;;10.20;99.90;;;;;;5098213;28;20779;-78
2021/03/03 09:19:41;;;;;;;10.02;7.15;;;10.20;99.90;;;;;;5095056;28;20216;-79
2021/03/03 09:22:17;;;;;;;12.00;8.20;;;10.20;99.90;;;;;;5094199;27;20258;-79
2021/03/03 09:24:44;;;;;;;17.65;7.60;;;10.20;99.90;;;;;;5100322;28;20204;-79
2021/03/03 09:27:10;;;;;;;9.70;7.45;;;10.30;99.90;;;;;;5092903;28;20221;-78
2021/03/03 09:29:38;;;;;;;9.60;6.57;;;10.30;99.90;;;;;;5096798;28;20208;-78
2021/03/03 09:32:09;;;;;;;13.15;7.70;;;10.20;99.90;;;;;;5099539;28;20276;-79
2021/03/03 09:34:43;;;;;;;8.40;7.15;;;10.10;99.90;;;;;;5104179;28;20215;-78
2021/03/03 09:37:09;;;;;;;8.82;6.82;;;9.90;99.90;;;;;;5090719;28;20197;-78
2021/03/03 09:39:35;;;;;;;8.43;6.25;;;9.80;99.90;;;;;;5094069;28;20250;-78
2021/03/03 09:42:04;;;;;;;12.07;8.10;;;9.60;99.90;;;;;;5099371;28;20294;-78
2021/03/03 09:44:47;;;;;;;9.63;6.93;;;9.60;99.90;;;;;;5099973;28;20613;-78
2021/03/03 09:47:21;;;;;;;9.55;6.95;;;9.50;99.90;;;;;;5093344;28;20211;-79
2021/03/03 09:49:47;;;;;;;10.02;6.40;;;9.50;99.90;;;;;;5100096;28;20192;-79
2021/03/03 09:52:13;;;;;;;10.18;7.50;;;9.40;99.90;;;;;;5094327;28;20685;-79
2021/03/03 09:54:40;;;;;;;12.88;8.10;;;9.40;99.90;;;;;;5102085;28;20242;-79
2021/03/03 09:57:12;;;;;;;9.38;7.20;;;9.40;99.90;;;;;;5090470;28;20209;-79
2021/03/03 09:59:44;;;;;;;14.20;8.15;;;9.40;99.90;;;;;;5096177;28;20221;-79
2021/03/03 10:02:11;;;;;;;14.43;7.43;;;9.40;99.90;;;;;;5092816;28;20196;-78
2021/03/03 10:04:40;;;;;;;10.85;8.27;;;9.40;99.90;;;;;;5096909;28;20254;-79
2021/03/03 10:07:11;;;;;;;9.52;6.70;;;9.40;99.90;;;;;;5098545;28;20193;-79
2021/03/03 10:09:39;;;;;;;14.40;7.50;;;9.40;99.90;;;;;;5092868;28;20610;-79
2021/03/03 10:12:08;;;;;;;12.38;7.60;;;9.50;99.90;;;;;;5098627;28;20197;-78
2021/03/03 10:14:34;;;;;;;11.35;8.30;;;9.60;99.90;;;;;;5099232;28;20204;-80
2021/03/03 10:17:02;;;;;;;14.30;8.57;;;9.60;99.90;;;;;;5098235;28;20751;-78
2021/03/03 10:19:28;;;;;;;11.60;9.25;;;9.70;99.90;;;;;;5098551;28;20217;-80
2021/03/03 10:21:56;;;;;;;13.80;8.25;;;9.80;99.90;;;;;;5095169;28;20233;-80
2021/03/03 10:28:41;;;;;;;10.55;8.13;;;9.80;99.90;;;;;;5093018;28;20275;-79
2021/03/03 10:32:13;;;;;;;13.40;9.30;;;9.90;99.90;;;;;;5091198;28;20524;-79
2021/03/03 10:35:08;;;;;;;21.13;9.77;;;9.90;99.90;;;;;;5091178;28;20205;-78
2021/03/03 10:38:00;;;;;;;16.48;9.63;;;10.00;99.90;;;;;;5106640;28;20266;-87
2021/03/03 10:40:27;;;;;;;11.52;7.40;;;10.10;99.90;;;;;;5088411;28;20221;-76
2021/03/03 10:43:12;;;;;;;16.00;9.25;;;10.10;99.90;;;;;;5108172;28;20197;-76
2021/03/03 10:48:55;;;;;;;15.57;10.02;;;10.20;99.90;;;;;;5101504;28;20674;-78
2021/03/03 10:51:39;;;;;;;17.48;9.38;;;10.30;99.90;;;;;;5093828;28;20201;-80
2021/03/03 10:54:33;;;;;;;18.45;9.98;;;10.40;99.90;;;;;;5094021;28;20201;-80
2021/03/03 11:00:58;;;;;;;13.45;9.05;;;10.50;99.90;;;;;;5093143;28;20212;-81
2021/03/03 11:03:48;;;;;;;22.15;10.02;;;10.50;99.90;;;;;;5108166;28;20236;-77
2021/03/03 11:06:17;;;;;;;18.10;9.82;;;10.60;99.90;;;;;;5105081;28;20624;-78
2021/03/03 11:08:45;;;;;;;16.63;11.93;;;10.70;99.90;;;;;;5113988;28;20196;-78
2021/03/03 11:11:15;;;;;;;18.00;11.18;;;10.70;99.90;;;;;;5114292;28;20204;-78
2021/03/03 11:13:44;;;;;;;14.48;9.65;;;10.70;99.90;;;;;;5112964;28;20205;-80
2021/03/03 11:16:11;;;;;;;20.63;11.07;;;10.70;99.90;;;;;;5101791;27;20217;-80
2021/03/03 11:18:37;;;;;;;15.32;10.50;;;10.70;99.90;;;;;;5094718;28;20300;-80
2021/03/03 11:21:47;;;;;;;18.13;11.35;;;10.80;99.90;;;;;;5093528;28;20288;-80
2021/03/03 11:24:14;;;;;;;16.80;11.20;;;10.80;99.90;;;;;;5098088;27;20198;-79
2021/03/03 11:26:45;;;;;;;23.42;12.48;;;10.90;99.90;;;;;;5110653;27;20200;-80
2021/03/03 11:29:14;;;;;;;14.80;11.02;;;10.90;99.90;;;;;;5102463;27;20196;-79
2021/03/03 11:31:42;;;;;;;18.98;12.65;;;10.90;99.90;;;;;;5099212;27;20284;-80
2021/03/03 11:34:15;;;;;;;20.73;12.25;;;11.00;99.90;;;;;;5101489;27;20737;-79
2021/03/03 11:36:51;;;;;;;21.10;13.35;;;11.00;99.90;;;;;;5104686;27;20201;-81
2021/03/03 11:39:20;;;;;;;24.70;13.20;;;11.00;99.90;;;;;;5093984;28;20220;-78
2021/03/03 11:41:49;;;;;;;22.77;13.80;;;11.10;99.90;;;;;;5097429;28;20193;-79
2021/03/03 11:44:24;;;;;;;22.50;14.57;;;11.10;99.90;;;;;;5102946;28;20516;-80
2021/03/03 11:47:09;;;;;;;22.67;13.38;;;11.10;99.90;;;;;;5103098;28;20589;-81
2021/03/03 11:49:46;;;;;;;18.67;14.77;;;11.10;99.90;;;;;;5103980;27;20200;-80
2021/03/03 11:52:49;;;;;;;20.67;13.85;;;11.10;99.90;;;;;;5095208;28;20323;-80
2021/03/03 11:56:12;;;;;;;22.40;15.00;;;11.10;99.90;;;;;;5101768;28;20200;-81
2021/03/03 12:02:50;;;;;;;27.58;16.15;;;11.20;99.90;;;;;;5043843;28;20198;-83
2021/03/03 12:05:38;;;;;;;26.48;14.85;;;11.20;99.90;;;;;;5093941;28;20201;-81
2021/03/03 12:08:07;;;;;;;24.00;15.38;;;11.20;99.90;;;;;;5104455;28;20225;-84
2021/03/03 12:10:39;;;;;;;26.17;18.85;;;11.20;99.90;;;;;;5094047;28;20201;-81
2021/03/03 12:13:11;;;;;;;22.02;15.35;;;11.30;99.90;;;;;;5098078;28;20616;-79
2021/03/03 12:15:46;;;;;;;25.33;14.35;;;11.30;99.90;;;;;;5095522;27;20201;-83
2021/03/03 12:18:14;;;;;;;29.08;17.48;;;11.30;99.90;;;;;;5093434;28;20241;-78
2021/03/03 12:20:40;;;;;;;27.80;16.50;;;11.30;99.90;;;;;;5101029;28;20201;-79
2021/03/03 12:23:06;;;;;;;29.23;16.60;;;11.40;99.90;;;;;;5099092;28;20237;-79
2021/03/03 12:25:33;;;;;;;24.90;15.85;;;11.40;99.90;;;;;;5106157;28;20197;-78
2021/03/03 12:27:59;;;;;;;28.63;18.83;;;11.40;99.90;;;;;;5114129;28;20243;-78
2021/03/03 12:30:26;;;;;;;22.50;16.48;;;11.40;99.90;;;;;;5104103;28;20197;-82
2021/03/03 12:32:52;;;;;;;26.88;16.00;;;11.40;99.90;;;;;;5103305;28;20637;-81
2021/03/03 12:35:20;;;;;;;28.98;17.50;;;11.40;99.90;;;;;;5110737;28;20192;-80
2021/03/03 12:37:46;;;;;;;23.50;18.52;;;11.50;99.90;;;;;;5096652;28;20227;-81
2021/03/03 12:40:13;;;;;;;29.80;16.38;;;11.50;99.90;;;;;;5103520;28;20194;-80
2021/03/03 12:42:39;;;;;;;24.70;17.00;;;11.50;99.90;;;;;;5110518;28;20215;-81
2021/03/03 12:45:06;;;;;;;24.52;16.70;;;11.50;99.90;;;;;;5111658;28;20193;-80
2021/03/03 12:47:32;;;;;;;25.08;18.05;;;11.50;99.90;;;;;;5101351;28;20254;-81
2021/03/03 12:49:59;;;;;;;20.63;15.23;;;11.60;99.90;;;;;;5102310;28;20247;-81
2021/03/03 12:52:26;;;;;;;27.73;17.92;;;11.60;99.90;;;;;;5109215;28;20201;-85
2021/03/03 12:54:52;;;;;;;31.25;20.00;;;11.60;99.90;;;;;;5104480;28;20224;-83
2021/03/03 12:57:19;;;;;;;24.65;17.33;;;11.60;99.90;;;;;;5103904;28;20215;-83
2021/03/03 12:59:45;;;;;;;22.23;16.77;;;11.60;99.90;;;;;;5106741;28;20216;-84
2021/03/03 13:02:11;;;;;;;27.70;16.23;;;11.60;99.90;;;;;;5105854;28;20204;-81
2021/03/03 13:04:37;;;;;;;27.48;15.85;;;11.60;99.90;;;;;;5109540;28;20193;-82
2021/03/03 13:07:03;;;;;;;23.80;17.80;;;11.70;99.90;;;;;;5096872;28;20193;-82
2021/03/03 13:09:30;;;;;;;28.20;18.33;;;11.70;99.90;;;;;;5092613;28;20219;-80
2021/03/03 13:11:57;;;;;;;24.08;16.95;;;11.70;99.90;;;;;;5098571;28;20196;-81
2021/03/03 13:14:23;;;;;;;24.73;16.20;;;11.70;99.90;;;;;;5110658;28;20629;-81
2021/03/03 13:16:49;;;;;;;24.30;17.83;;;11.70;99.90;;;;;;5102261;28;20200;-83